Snow/Ice From: 16-12-2017 16:00 Until: 17-12-2017 16:00 warning for: Snow/Ice Level: Yellow info button

Although rather usual in this region, locally or potentially dangerous phenomena are expected. (such as local winds, summer thunderstorms, rising streams or high waves) Be aware and pay attention to the latest weather updates, especially if you carry out activities exposed to weather or close to a stream or shoreline. 


Meteo18 Weather Cam more information Meteo18 Weather Cam


Thunder radar more information blitzortung!


warning for Snow/Ice more information rain snow radar


Visit our other weather sites:

Template documentation
and downloads

And another site



Weather Underground History page Text

Daily Summary for January 1, 2016 Units:  Metric    English   Both
« Previous Day
Next Day »
Daily Weekly Monthly Yearly Custom
  High: Low: Average:
Temperature: 8.1 °C 0.4 °C 4.2 °C
Dew Point: 7.3 °C 0.1 °C 3.5 °C
Humidity: 99 % 88 % 95 %
Wind Speed: 9.7 km/h 0.0 km/h 0.4 km/h
Wind Gust: 16.1 km/h - -
Wind:- - West
Pressure: 1025.6 hPa 1010.7 hPa -
Precipitation: 0.3 mm    
Historical Graphs
 
 
Tabular Data for January 1, 2016
Time Temperature Dew Point Pressure Wind Wind Speed Wind Gust Humidity Rainfall Rate (Hourly)
00:02 2.3 °C 2.0 °C 1025.3 hPa Calm     98 % 0.0 mm
00:12 2.3 °C 2.0 °C 1025.3 hPa Calm     98 % 0.0 mm
00:17 2.3 °C 2.0 °C 1025.3 hPa Calm     98 % 0.0 mm
00:22 2.4 °C 2.1 °C 1025.3 hPa Calm     98 % 0.0 mm
00:27 2.3 °C 2.0 °C 1025.6 hPa Calm     98 % 0.0 mm
00:32 2.4 °C 2.1 °C 1025.6 hPa Calm     98 % 0.0 mm
00:37 2.5 °C 2.2 °C 1025.6 hPa Calm     98 % 0.0 mm
00:42 2.6 °C 2.3 °C 1025.6 hPa Calm   1.6 km/h 98 % 0.0 mm
00:47 2.4 °C 2.1 °C 1025.6 hPa Calm   1.6 km/h 98 % 0.0 mm
00:52 2.2 °C 1.9 °C 1025.6 hPa Calm   1.6 km/h 98 % 0.0 mm
00:57 2.0 °C 1.7 °C 1025.6 hPa Calm     98 % 0.0 mm
01:02 1.8 °C 1.5 °C 1025.3 hPa Calm     98 % 0.0 mm
01:07 1.7 °C 1.4 °C 1025.3 hPa Calm     98 % 0.0 mm
01:12 1.7 °C 1.4 °C 1025.6 hPa Calm     98 % 0.0 mm
01:17 1.6 °C 1.3 °C 1025.3 hPa Calm     98 % 0.0 mm
01:22 1.5 °C 1.2 °C 1025.6 hPa Calm     98 % 0.0 mm
01:27 1.3 °C 1.0 °C 1025.6 hPa Calm     98 % 0.0 mm
01:32 1.2 °C 0.9 °C 1025.6 hPa Calm     98 % 0.0 mm
01:37 1.3 °C 1.0 °C 1025.3 hPa Calm     98 % 0.0 mm
01:42 1.3 °C 1.0 °C 1025.3 hPa Calm     98 % 0.0 mm
01:47 1.1 °C 0.8 °C 1025.3 hPa Calm     98 % 0.0 mm
01:52 1.1 °C 0.8 °C 1025.3 hPa Calm     98 % 0.0 mm
01:57 1.2 °C 0.9 °C 1025.3 hPa Calm     98 % 0.0 mm
02:02 1.3 °C 1.0 °C 1025.3 hPa Calm     98 % 0.0 mm
02:07 1.4 °C 1.1 °C 1025.3 hPa Calm     98 % 0.0 mm
02:12 1.3 °C 1.0 °C 1025.6 hPa Calm     98 % 0.0 mm
02:17 1.1 °C 0.8 °C 1025.6 hPa Calm     98 % 0.0 mm
02:27 1.1 °C 0.8 °C 1025.3 hPa Calm     98 % 0.0 mm
02:32 1.1 °C 0.8 °C 1025.3 hPa Calm     98 % 0.0 mm
02:37 1.0 °C 0.7 °C 1025.3 hPa Calm     98 % 0.0 mm
02:42 1.0 °C 0.7 °C 1025.6 hPa Calm     98 % 0.0 mm
02:47 1.0 °C 0.7 °C 1025.6 hPa Calm     98 % 0.0 mm
02:52 1.0 °C 0.7 °C 1025.6 hPa Calm     98 % 0.0 mm
02:57 1.0 °C 0.7 °C 1025.3 hPa Calm     98 % 0.0 mm
03:02 0.9 °C 0.6 °C 1025.6 hPa Calm     98 % 0.0 mm
03:07 0.9 °C 0.6 °C 1025.6 hPa Calm     98 % 0.0 mm
03:12 0.8 °C 0.5 °C 1025.3 hPa Calm     98 % 0.0 mm
03:17 0.7 °C 0.4 °C 1025.3 hPa Calm     98 % 0.0 mm
03:22 0.8 °C 0.5 °C 1025.3 hPa Calm     98 % 0.0 mm
03:27 0.8 °C 0.5 °C 1025.3 hPa Calm     98 % 0.0 mm
03:32 0.8 °C 0.5 °C 1025.3 hPa Calm     98 % 0.0 mm
03:37 0.6 °C 0.3 °C 1025.3 hPa Calm     98 % 0.0 mm
03:42 0.5 °C 0.2 °C 1025.3 hPa Calm     98 % 0.0 mm
03:47 0.6 °C 0.3 °C 1025.3 hPa Calm     98 % 0.0 mm
03:52 0.7 °C 0.4 °C 1025.3 hPa Calm     98 % 0.0 mm
03:57 0.7 °C 0.4 °C 1025.3 hPa Calm     98 % 0.0 mm
04:02 0.7 °C 0.4 °C 1025.3 hPa Calm     98 % 0.0 mm
04:07 0.7 °C 0.4 °C 1025.3 hPa Calm     98 % 0.0 mm
04:12 0.7 °C 0.4 °C 1025.3 hPa Calm     98 % 0.0 mm
04:17 0.7 °C 0.4 °C 1025.3 hPa Calm     98 % 0.0 mm
04:22 0.6 °C 0.3 °C 1025.3 hPa Calm     98 % 0.0 mm
04:27 0.6 °C 0.3 °C 1025.3 hPa Calm     98 % 0.0 mm
04:32 0.7 °C 0.4 °C 1025.3 hPa Calm     98 % 0.0 mm
04:37 0.7 °C 0.4 °C 1025.3 hPa Calm     98 % 0.0 mm
04:42 0.8 °C 0.5 °C 1024.9 hPa Calm   1.6 km/h 98 % 0.0 mm
04:47 0.8 °C 0.5 °C 1024.9 hPa Calm   1.6 km/h 98 % 0.0 mm
04:52 0.8 °C 0.5 °C 1024.9 hPa Calm   1.6 km/h 98 % 0.0 mm
04:57 0.8 °C 0.5 °C 1024.9 hPa Calm     98 % 0.0 mm
05:02 0.7 °C 0.4 °C 1024.9 hPa Calm     98 % 0.0 mm
05:07 0.6 °C 0.3 °C 1024.9 hPa Calm     98 % 0.0 mm
05:12 0.6 °C 0.3 °C 1024.9 hPa Calm     98 % 0.0 mm
05:17 0.8 °C 0.5 °C 1024.9 hPa Calm     98 % 0.0 mm
05:22 0.8 °C 0.5 °C 1024.9 hPa Calm     98 % 0.0 mm
05:32 0.6 °C 0.3 °C 1024.9 hPa Calm     98 % 0.0 mm
05:37 0.6 °C 0.3 °C 1024.9 hPa Calm     98 % 0.0 mm
05:42 0.6 °C 0.3 °C 1024.9 hPa Calm     98 % 0.0 mm
05:47 0.6 °C 0.3 °C 1024.9 hPa Calm     98 % 0.0 mm
05:52 0.7 °C 0.4 °C 1024.9 hPa Calm     98 % 0.0 mm
05:57 0.7 °C 0.4 °C 1024.6 hPa Calm     98 % 0.0 mm
06:02 0.7 °C 0.4 °C 1024.6 hPa Calm     98 % 0.0 mm
06:07 0.7 °C 0.4 °C 1024.6 hPa Calm     98 % 0.0 mm
06:12 0.7 °C 0.4 °C 1024.6 hPa Calm     98 % 0.0 mm
06:17 0.7 °C 0.4 °C 1024.6 hPa Calm     98 % 0.0 mm
06:22 0.7 °C 0.4 °C 1024.6 hPa Calm     98 % 0.0 mm
06:27 0.8 °C 0.5 °C 1024.6 hPa Calm     98 % 0.0 mm
06:32 0.8 °C 0.5 °C 1024.6 hPa Calm     98 % 0.0 mm
06:37 0.8 °C 0.5 °C 1024.3 hPa Calm     98 % 0.0 mm
06:42 0.8 °C 0.5 °C 1024.6 hPa Calm     98 % 0.0 mm
06:47 0.8 °C 0.5 °C 1024.6 hPa Calm     98 % 0.0 mm
06:52 0.8 °C 0.5 °C 1024.3 hPa Calm     98 % 0.0 mm
06:57 0.7 °C 0.4 °C 1024.3 hPa Calm     98 % 0.0 mm
07:02 0.7 °C 0.4 °C 1024.3 hPa Calm     98 % 0.0 mm
07:07 0.6 °C 0.3 °C 1024.3 hPa Calm     98 % 0.0 mm
07:12 0.6 °C 0.3 °C 1024.3 hPa Calm     98 % 0.0 mm
07:22 0.5 °C 0.2 °C 1024.3 hPa Calm     98 % 0.0 mm
07:27 0.5 °C 0.2 °C 1023.9 hPa Calm     98 % 0.0 mm
07:32 0.4 °C 0.1 °C 1024.3 hPa Calm     98 % 0.0 mm
07:37 0.4 °C 0.1 °C 1024.3 hPa Calm     98 % 0.0 mm
07:42 0.4 °C 0.1 °C 1024.3 hPa Calm     98 % 0.0 mm
07:47 0.4 °C 0.1 °C 1024.3 hPa Calm     98 % 0.0 mm
07:52 0.5 °C 0.2 °C 1023.9 hPa Calm     98 % 0.0 mm
08:02 0.6 °C 0.3 °C 1024.3 hPa Calm     98 % 0.0 mm
08:07 0.6 °C 0.3 °C 1024.3 hPa Calm     98 % 0.0 mm
08:12 0.7 °C 0.4 °C 1024.3 hPa Calm     98 % 0.0 mm
08:17 0.7 °C 0.4 °C 1024.3 hPa Calm     98 % 0.0 mm
08:22 0.6 °C 0.3 °C 1024.3 hPa Calm     98 % 0.0 mm
08:27 0.6 °C 0.3 °C 1024.3 hPa Calm     98 % 0.0 mm
08:32 0.6 °C 0.3 °C 1024.3 hPa Calm     98 % 0.0 mm
08:37 0.6 °C 0.3 °C 1024.3 hPa Calm     98 % 0.0 mm
08:42 0.7 °C 0.4 °C 1024.3 hPa Calm     98 % 0.0 mm
08:47 0.7 °C 0.4 °C 1024.3 hPa Calm     98 % 0.0 mm
08:52 0.8 °C 0.5 °C 1024.3 hPa Calm     98 % 0.3 mm
08:57 1.1 °C 0.8 °C 1024.3 hPa Calm     98 % 0.3 mm
09:02 1.2 °C 0.9 °C 1024.3 hPa Calm     98 % 0.3 mm
09:07 1.4 °C 1.1 °C 1024.3 hPa Calm     98 % 0.3 mm
09:12 1.7 °C 1.4 °C 1024.3 hPa Calm     98 % 0.3 mm
09:17 2.1 °C 1.8 °C 1024.3 hPa Calm     98 % 0.3 mm
09:22 2.2 °C 1.9 °C 1024.3 hPa Calm     98 % 0.3 mm
09:27 2.3 °C 2.0 °C 1024.3 hPa Calm     98 % 0.3 mm
09:32 2.4 °C 2.3 °C 1023.9 hPa Calm     99 % 0.3 mm
09:42 2.6 °C 2.5 °C 1023.9 hPa Calm     99 % 0.3 mm
09:47 2.6 °C 2.5 °C 1023.9 hPa Calm     99 % 0.3 mm
09:52 2.5 °C 2.4 °C 1023.9 hPa Calm     99 % 0.0 mm
09:57 2.4 °C 2.3 °C 1023.6 hPa Calm     99 % 0.0 mm
10:02 2.4 °C 2.3 °C 1023.6 hPa Calm     99 % 0.0 mm
10:07 2.4 °C 2.3 °C 1023.6 hPa Calm     99 % 0.0 mm
10:12 2.6 °C 2.5 °C 1023.6 hPa Calm     99 % 0.0 mm
10:17 2.8 °C 2.7 °C 1023.2 hPa Calm     99 % 0.0 mm
10:22 3.1 °C 3.0 °C 1023.2 hPa Calm   1.6 km/h 99 % 0.0 mm
10:27 3.3 °C 3.2 °C 1023.2 hPa Calm   1.6 km/h 99 % 0.0 mm
10:32 3.5 °C 3.4 °C 1023.2 hPa Calm   1.6 km/h 99 % 0.0 mm
10:37 3.7 °C 3.6 °C 1023.2 hPa Calm     99 % 0.0 mm
10:42 3.8 °C 3.7 °C 1023.2 hPa Calm     99 % 0.0 mm
10:47 4.0 °C 3.9 °C 1023.2 hPa Calm   1.6 km/h 99 % 0.0 mm
10:52 4.2 °C 4.1 °C 1022.9 hPa Calm   1.6 km/h 99 % 0.0 mm
10:57 4.3 °C 4.2 °C 1022.9 hPa Calm   1.6 km/h 99 % 0.0 mm
11:02 4.4 °C 4.3 °C 1022.9 hPa Calm   3.2 km/h 99 % 0.0 mm
11:12 4.6 °C 4.5 °C 1022.6 hPa Calm   3.2 km/h 99 % 0.0 mm
11:17 4.6 °C 4.5 °C 1022.6 hPa Calm   3.2 km/h 99 % 0.0 mm
11:22 4.7 °C 4.6 °C 1022.6 hPa West 3.2 km/h 3.2 km/h 99 % 0.0 mm
11:32 4.9 °C 4.8 °C 1022.2 hPa Calm   3.2 km/h 99 % 0.0 mm
11:37 5.1 °C 5.0 °C 1022.2 hPa Calm   3.2 km/h 99 % 0.0 mm
11:42 5.2 °C 5.1 °C 1022.2 hPa Calm   1.6 km/h 99 % 0.0 mm
11:47 5.3 °C 5.2 °C 1021.9 hPa Calm   1.6 km/h 99 % 0.0 mm
11:52 5.3 °C 5.2 °C 1021.9 hPa Calm   1.6 km/h 99 % 0.0 mm
11:57 5.5 °C 5.4 °C 1021.9 hPa Calm   1.6 km/h 99 % 0.0 mm
12:02 5.6 °C 5.5 °C 1021.6 hPa Calm   1.6 km/h 99 % 0.0 mm
12:07 5.6 °C 5.5 °C 1021.6 hPa Calm   1.6 km/h 99 % 0.0 mm
12:12 5.6 °C 5.5 °C 1021.6 hPa Calm   1.6 km/h 99 % 0.0 mm
12:17 5.6 °C 5.5 °C 1021.2 hPa Calm   1.6 km/h 99 % 0.0 mm
12:22 5.7 °C 5.6 °C 1021.2 hPa Calm   1.6 km/h 99 % 0.0 mm
12:27 5.8 °C 5.7 °C 1021.2 hPa Calm   1.6 km/h 99 % 0.0 mm
12:32 5.8 °C 5.7 °C 1020.9 hPa Calm   1.6 km/h 99 % 0.0 mm
12:37 5.9 °C 5.8 °C 1020.9 hPa WSW 1.6 km/h 3.2 km/h 99 % 0.0 mm
12:42 6.1 °C 6.0 °C 1020.9 hPa NW 6.4 km/h 6.4 km/h 99 % 0.0 mm
12:47 6.1 °C 5.8 °C 1020.9 hPa Calm   6.4 km/h 98 % 0.0 mm
12:52 6.3 °C 6.0 °C 1020.5 hPa Calm   6.4 km/h 98 % 0.0 mm
12:57 6.4 °C 6.1 °C 1020.5 hPa Calm   6.4 km/h 98 % 0.0 mm
13:02 6.6 °C 6.3 °C 1020.2 hPa NNW 1.6 km/h 6.4 km/h 98 % 0.0 mm
13:07 6.6 °C 6.3 °C 1019.9 hPa Calm   4.8 km/h 98 % 0.0 mm
13:12 6.7 °C 6.4 °C 1019.9 hPa NNW 1.6 km/h 4.8 km/h 98 % 0.0 mm
13:17 7.0 °C 6.7 °C 1019.9 hPa Calm   4.8 km/h 98 % 0.0 mm
13:22 7.2 °C 6.9 °C 1019.9 hPa Calm   4.8 km/h 98 % 0.0 mm
13:27 7.4 °C 7.1 °C 1019.9 hPa Calm   4.8 km/h 98 % 0.0 mm
13:32 7.5 °C 7.2 °C 1019.9 hPa West 1.6 km/h 3.2 km/h 98 % 0.0 mm
13:37 7.6 °C 7.3 °C 1019.5 hPa Calm   4.8 km/h 98 % 0.0 mm
13:42 7.5 °C 7.1 °C 1019.5 hPa Calm   6.4 km/h 97 % 0.0 mm
13:47 7.6 °C 7.2 °C 1019.5 hPa Calm   6.4 km/h 97 % 0.0 mm
13:52 7.7 °C 7.3 °C 1019.2 hPa Calm   4.8 km/h 97 % 0.0 mm
13:57 7.7 °C 7.1 °C 1019.2 hPa Calm   4.8 km/h 96 % 0.0 mm
14:02 7.8 °C 7.2 °C 1018.8 hPa Calm   4.8 km/h 96 % 0.0 mm
14:07 7.8 °C 7.0 °C 1018.8 hPa West 1.6 km/h 4.8 km/h 95 % 0.0 mm
14:12 7.8 °C 7.0 °C 1018.8 hPa Calm   6.4 km/h 95 % 0.0 mm
14:17 8.1 °C 7.3 °C 1018.8 hPa Calm   6.4 km/h 95 % 0.0 mm
14:22 8.1 °C 7.2 °C 1018.8 hPa WSW 1.6 km/h 3.2 km/h 94 % 0.0 mm
14:27 8.1 °C 7.2 °C 1018.5 hPa Calm   4.8 km/h 94 % 0.0 mm
14:32 7.9 °C 6.8 °C 1018.5 hPa Calm   4.8 km/h 93 % 0.0 mm
14:37 7.8 °C 6.7 °C 1018.2 hPa WNW 6.4 km/h 6.4 km/h 93 % 0.0 mm
14:42 7.7 °C 6.6 °C 1018.2 hPa NW 6.4 km/h 9.7 km/h 93 % 0.0 mm
14:47 7.6 °C 6.5 °C 1017.8 hPa NW 3.2 km/h 9.7 km/h 93 % 0.0 mm
14:52 7.6 °C 6.5 °C 1017.8 hPa NW 3.2 km/h 9.7 km/h 93 % 0.0 mm
14:57 7.6 °C 6.5 °C 1017.5 hPa NW 3.2 km/h 9.7 km/h 93 % 0.0 mm
15:02 7.6 °C 6.5 °C 1017.5 hPa North 3.2 km/h 14.5 km/h 93 % 0.0 mm
15:07 7.6 °C 6.4 °C 1017.5 hPa Calm   14.5 km/h 92 % 0.0 mm
15:12 7.6 °C 6.4 °C 1017.5 hPa NW 1.6 km/h 14.5 km/h 92 % 0.0 mm
15:17 7.6 °C 6.4 °C 1017.2 hPa NE 1.6 km/h 8.0 km/h 92 % 0.0 mm
15:22 7.6 °C 6.4 °C 1017.2 hPa Calm   8.0 km/h 92 % 0.0 mm
15:27 7.6 °C 6.4 °C 1017.5 hPa Calm   8.0 km/h 92 % 0.0 mm
15:32 7.7 °C 6.5 °C 1017.5 hPa North 3.2 km/h 8.0 km/h 92 % 0.0 mm
15:37 7.6 °C 6.2 °C 1017.2 hPa Calm   3.2 km/h 91 % 0.0 mm
15:42 7.5 °C 6.1 °C 1017.2 hPa NW 3.2 km/h 4.8 km/h 91 % 0.0 mm
15:47 7.5 °C 6.0 °C 1017.2 hPa NW 4.8 km/h 6.4 km/h 90 % 0.0 mm
15:52 7.4 °C 5.9 °C 1016.8 hPa Calm   6.4 km/h 90 % 0.0 mm
15:57 7.5 °C 5.6 °C 1016.8 hPa NNW 3.2 km/h 16.1 km/h 88 % 0.0 mm
16:02 7.4 °C 5.5 °C 1016.8 hPa West 9.7 km/h 16.1 km/h 88 % 0.0 mm
16:07 7.4 °C 5.5 °C 1016.8 hPa Calm   16.1 km/h 88 % 0.0 mm
16:12 7.4 °C 5.5 °C 1016.8 hPa NNW 4.8 km/h 11.3 km/h 88 % 0.0 mm
16:17 7.4 °C 5.5 °C 1016.5 hPa North 3.2 km/h 9.7 km/h 88 % 0.0 mm
16:22 7.4 °C 5.7 °C 1016.8 hPa Calm   8.0 km/h 89 % 0.0 mm
16:27 7.3 °C 5.6 °C 1016.5 hPa Calm   8.0 km/h 89 % 0.0 mm
16:32 7.3 °C 5.6 °C 1016.5 hPa Calm   8.0 km/h 89 % 0.0 mm
16:37 7.2 °C 5.5 °C 1016.5 hPa Calm   4.8 km/h 89 % 0.0 mm
16:42 7.2 °C 5.5 °C 1016.5 hPa Calm   4.8 km/h 89 % 0.0 mm
16:47 7.1 °C 5.6 °C 1016.1 hPa Calm   3.2 km/h 90 % 0.0 mm
16:52 7.0 °C 5.5 °C 1016.1 hPa NW 1.6 km/h 1.6 km/h 90 % 0.0 mm
16:57 6.9 °C 5.4 °C 1016.1 hPa Calm   1.6 km/h 90 % 0.0 mm
17:02 6.8 °C 5.3 °C 1015.8 hPa Calm   1.6 km/h 90 % 0.0 mm
17:07 6.6 °C 5.2 °C 1015.8 hPa Calm   1.6 km/h 91 % 0.0 mm
17:12 6.5 °C 5.1 °C 1015.8 hPa Calm   1.6 km/h 91 % 0.0 mm
17:17 6.5 °C 5.1 °C 1016.1 hPa Calm   1.6 km/h 91 % 0.0 mm
17:22 6.6 °C 5.2 °C 1015.8 hPa Calm   1.6 km/h 91 % 0.0 mm
17:27 6.7 °C 5.2 °C 1015.5 hPa NW 1.6 km/h 3.2 km/h 90 % 0.0 mm
17:32 6.7 °C 5.2 °C 1015.5 hPa Calm   4.8 km/h 90 % 0.0 mm
17:37 6.8 °C 5.1 °C 1015.5 hPa NNW 3.2 km/h 4.8 km/h 89 % 0.0 mm
17:42 6.8 °C 5.1 °C 1015.5 hPa SE 1.6 km/h 4.8 km/h 89 % 0.0 mm
17:47 6.8 °C 5.1 °C 1015.1 hPa NW 1.6 km/h 8.0 km/h 89 % 0.0 mm
17:52 6.8 °C 5.0 °C 1015.1 hPa ESE 1.6 km/h 8.0 km/h 88 % 0.0 mm
17:57 6.8 °C 5.0 °C 1015.1 hPa NW 1.6 km/h 8.0 km/h 88 % 0.0 mm
18:02 6.8 °C 5.0 °C 1015.1 hPa NW 1.6 km/h 6.4 km/h 88 % 0.0 mm
18:07 6.7 °C 5.0 °C 1015.1 hPa Calm   8.0 km/h 89 % 0.0 mm
18:12 6.7 °C 5.0 °C 1014.8 hPa NNE 1.6 km/h 8.0 km/h 89 % 0.0 mm
18:17 6.6 °C 4.9 °C 1014.8 hPa North 1.6 km/h 8.0 km/h 89 % 0.0 mm
18:22 6.5 °C 5.0 °C 1014.4 hPa Calm   8.0 km/h 90 % 0.0 mm
18:27 6.4 °C 4.9 °C 1014.4 hPa Calm   8.0 km/h 90 % 0.0 mm
18:32 6.4 °C 4.9 °C 1014.4 hPa Calm   8.0 km/h 90 % 0.0 mm
18:37 6.3 °C 4.9 °C 1014.1 hPa Calm   4.8 km/h 91 % 0.0 mm
18:42 6.3 °C 4.9 °C 1014.1 hPa WNW 1.6 km/h 1.6 km/h 91 % 0.0 mm
18:47 6.3 °C 4.9 °C 1014.1 hPa Calm   3.2 km/h 91 % 0.0 mm
18:57 6.3 °C 4.9 °C 1013.8 hPa Calm   4.8 km/h 91 % 0.0 mm
19:02 6.3 °C 4.9 °C 1013.8 hPa Calm   4.8 km/h 91 % 0.0 mm
19:07 6.3 °C 4.9 °C 1013.8 hPa Calm   4.8 km/h 91 % 0.0 mm
19:12 6.2 °C 4.8 °C 1013.8 hPa Calm   4.8 km/h 91 % 0.0 mm
19:17 6.2 °C 4.8 °C 1013.8 hPa WSW 1.6 km/h 4.8 km/h 91 % 0.0 mm
19:22 6.2 °C 5.0 °C 1014.1 hPa Calm   4.8 km/h 92 % 0.0 mm
19:27 6.1 °C 4.9 °C 1013.8 hPa WSW 1.6 km/h 6.4 km/h 92 % 0.0 mm
19:32 6.1 °C 4.9 °C 1014.1 hPa Calm   6.4 km/h 92 % 0.0 mm
19:37 6.1 °C 4.9 °C 1013.8 hPa WSW 3.2 km/h 4.8 km/h 92 % 0.0 mm
19:42 6.1 °C 4.9 °C 1013.8 hPa Calm   4.8 km/h 92 % 0.0 mm
19:47 6.1 °C 4.9 °C 1013.8 hPa NNW 3.2 km/h 4.8 km/h 92 % 0.0 mm
19:52 6.2 °C 5.0 °C 1013.4 hPa NW 1.6 km/h 4.8 km/h 92 % 0.0 mm
19:57 6.2 °C 5.0 °C 1013.8 hPa Calm   4.8 km/h 92 % 0.0 mm
20:02 6.2 °C 5.0 °C 1013.8 hPa Calm   4.8 km/h 92 % 0.0 mm
20:07 6.2 °C 5.0 °C 1013.8 hPa Calm   3.2 km/h 92 % 0.0 mm
20:12 6.2 °C 5.0 °C 1013.4 hPa West 1.6 km/h 3.2 km/h 92 % 0.0 mm
20:17 6.2 °C 5.0 °C 1013.4 hPa Calm   3.2 km/h 92 % 0.0 mm
20:22 6.2 °C 5.0 °C 1013.4 hPa Calm   3.2 km/h 92 % 0.0 mm
20:27 6.3 °C 5.1 °C 1013.4 hPa NW 1.6 km/h 4.8 km/h 92 % 0.0 mm
20:32 6.3 °C 5.1 °C 1013.1 hPa Calm   4.8 km/h 92 % 0.0 mm
20:37 6.3 °C 5.1 °C 1013.1 hPa Calm   4.8 km/h 92 % 0.0 mm
20:42 6.3 °C 5.1 °C 1013.1 hPa Calm   3.2 km/h 92 % 0.0 mm
20:47 6.3 °C 5.1 °C 1012.8 hPa Calm   3.2 km/h 92 % 0.0 mm
20:52 6.3 °C 5.3 °C 1012.8 hPa NNE 1.6 km/h 3.2 km/h 93 % 0.0 mm
20:57 6.3 °C 5.1 °C 1012.8 hPa Calm   3.2 km/h 92 % 0.0 mm
21:02 6.3 °C 5.3 °C 1012.8 hPa NW 1.6 km/h 3.2 km/h 93 % 0.0 mm
21:07 6.3 °C 5.1 °C 1012.8 hPa Calm   3.2 km/h 92 % 0.0 mm
21:12 6.3 °C 5.1 °C 1012.8 hPa Calm   3.2 km/h 92 % 0.0 mm
21:17 6.3 °C 5.3 °C 1012.8 hPa Calm   3.2 km/h 93 % 0.0 mm
21:22 6.3 °C 5.3 °C 1012.4 hPa NNW 1.6 km/h 1.6 km/h 93 % 0.0 mm
21:27 6.3 °C 5.3 °C 1012.4 hPa Calm   1.6 km/h 93 % 0.0 mm
21:32 6.2 °C 5.2 °C 1012.4 hPa Calm   1.6 km/h 93 % 0.0 mm
21:37 6.2 °C 5.2 °C 1012.4 hPa Calm   1.6 km/h 93 % 0.0 mm
21:42 6.2 °C 5.2 °C 1012.4 hPa Calm   1.6 km/h 93 % 0.0 mm
21:47 6.2 °C 5.2 °C 1012.4 hPa Calm   1.6 km/h 93 % 0.0 mm
21:52 6.3 °C 5.3 °C 1012.1 hPa Calm   1.6 km/h 93 % 0.0 mm
21:57 6.4 °C 5.4 °C 1012.1 hPa Calm   1.6 km/h 93 % 0.0 mm
22:02 6.3 °C 5.3 °C 1011.7 hPa Calm   1.6 km/h 93 % 0.0 mm
22:07 6.3 °C 5.3 °C 1011.7 hPa Calm   1.6 km/h 93 % 0.0 mm
22:12 6.3 °C 5.3 °C 1011.7 hPa Calm     93 % 0.0 mm
22:17 6.3 °C 5.4 °C 1011.7 hPa Calm     94 % 0.0 mm
22:22 6.4 °C 5.4 °C 1011.7 hPa Calm     93 % 0.0 mm
22:27 6.4 °C 5.4 °C 1011.4 hPa Calm     93 % 0.0 mm
22:32 6.3 °C 5.3 °C 1011.4 hPa Calm     93 % 0.0 mm
22:37 6.3 °C 5.4 °C 1011.4 hPa Calm     94 % 0.0 mm
22:42 6.3 °C 5.4 °C 1011.4 hPa Calm     94 % 0.0 mm
22:47 6.3 °C 5.4 °C 1011.1 hPa Calm     94 % 0.0 mm
22:52 6.3 °C 5.4 °C 1011.1 hPa Calm   1.6 km/h 94 % 0.0 mm
22:57 6.4 °C 5.5 °C 1011.1 hPa Calm   1.6 km/h 94 % 0.0 mm
23:02 6.4 °C 5.5 °C 1011.1 hPa Calm   1.6 km/h 94 % 0.0 mm
23:07 6.5 °C 5.6 °C 1011.1 hPa Calm   1.6 km/h 94 % 0.0 mm
23:12 6.6 °C 5.7 °C 1011.1 hPa Calm   1.6 km/h 94 % 0.0 mm
23:17 6.7 °C 5.6 °C 1011.1 hPa Calm   1.6 km/h 93 % 0.0 mm
23:22 6.7 °C 5.6 °C 1011.1 hPa Calm   1.6 km/h 93 % 0.0 mm
23:32 6.8 °C 5.7 °C 1010.7 hPa Calm   1.6 km/h 93 % 0.0 mm
23:37 6.7 °C 5.6 °C 1011.1 hPa Calm     93 % 0.0 mm
23:42 6.6 °C 5.5 °C 1011.1 hPa Calm     93 % 0.0 mm
23:47 6.6 °C 5.5 °C 1011.1 hPa Calm     93 % 0.0 mm
23:52 6.6 °C 5.5 °C 1011.1 hPa Calm     93 % 0.0 mm
23:57 6.6 °C 5.7 °C 1010.7 hPa Calm     94 % 0.0 mm
Meteo18
Compliments of Weather Underground - 4 mb

Script developed by  Jim McMurry - jmcmurry@mwt.net Adapted for the template by  Wim van der Kuil - Leuven-Template.eu

You find our weather info also at:

European Weather Network

Weather Underground

Equipment we use:

Weather-station
Davis Vue

Weather-program
Meteohub

Weather-server
Raspberry PI 2 B+

Provider
1 and 1

Davis Vue

Meteohub

Raspberry PI 2 B+

1 and 1